Time,TemperatureF,DewpointF,PressureIn,WindDirection,WindDirectionDegrees,WindSpeedMPH,WindSpeedGustMPH,Humidity,HourlyPrecipIn,Conditions,Clouds,dailyrainin,SoftwareType,DateUTC
2013-01-07 00:24:00,36.1,28.0,30.39,NE,40,8.0,13.0,71,0.00,,,0.00,weatherlink.com 1.10,2013-01-07 05:24:00,
2013-01-07 00:39:00,35.7,27.0,30.39,NNE,24,2.0,11.0,72,0.00,,,0.00,weatherlink.com 1.10,2013-01-07 05:39:00,
2013-01-07 00:55:00,35.1,27.0,30.39,ENE,67,0.0,13.0,73,0.00,,,0.00,weatherlink.com 1.10,2013-01-07 05:55:00,
2013-01-07 01:10:00,34.6,27.0,30.39,NNW,333,6.0,12.0,73,0.00,,,0.00,weatherlink.com 1.10,2013-01-07 06:10:00,
2013-01-07 01:25:00,34.0,26.0,30.39,North,354,10.0,12.0,73,0.00,,,0.00,weatherlink.com 1.10,2013-01-07 06:25:00,
2013-01-07 01:40:00,33.9,26.0,30.40,NNW,336,1.0,12.0,74,0.00,,,0.00,weatherlink.com 1.10,2013-01-07 06:40:00,
2013-01-07 01:55:00,33.7,27.0,30.41,East,79,2.0,6.0,75,0.00,,,0.00,weatherlink.com 1.10,2013-01-07 06:55:00,
2013-01-07 02:10:00,33.6,26.0,30.42,NNW,332,2.0,6.0,73,0.00,,,0.00,weatherlink.com 1.10,2013-01-07 07:10:00,
2013-01-07 02:25:00,33.3,26.0,30.42,NNW,334,2.0,7.0,74,0.00,,,0.00,weatherlink.com 1.10,2013-01-07 07:25:00,
2013-01-07 02:40:00,32.6,26.0,30.41,NNW,336,1.0,9.0,76,0.00,,,0.00,weatherlink.com 1.10,2013-01-07 07:40:00,
2013-01-07 02:55:00,31.9,25.0,30.40,NNW,340,2.0,6.0,77,0.00,,,0.00,weatherlink.com 1.10,2013-01-07 07:55:00,
2013-01-07 03:10:00,31.8,26.0,30.41,NW,311,3.0,7.0,78,0.00,,,0.00,weatherlink.com 1.10,2013-01-07 08:10:00,
2013-01-07 03:25:00,31.7,25.0,30.42,North,359,4.0,6.0,77,0.00,,,0.00,weatherlink.com 1.10,2013-01-07 08:25:00,
2013-01-07 03:40:00,31.2,25.0,30.42,SSW,194,3.0,8.0,79,0.00,,,0.00,weatherlink.com 1.10,2013-01-07 08:40:00,
2013-01-07 03:55:00,31.5,25.0,30.42,North,6,6.0,11.0,78,0.00,,,0.00,weatherlink.com 1.10,2013-01-07 08:55:00,
2013-01-07 04:10:00,31.4,25.0,30.42,NNW,330,4.0,9.0,78,0.00,,,0.00,weatherlink.com 1.10,2013-01-07 09:10:00,
2013-01-07 04:25:00,31.0,25.0,30.42,NNW,340,7.0,8.0,78,0.00,,,0.00,weatherlink.com 1.10,2013-01-07 09:25:00,
2013-01-07 04:40:00,31.0,25.0,30.43,NNW,347,5.0,6.0,79,0.00,,,0.00,weatherlink.com 1.10,2013-01-07 09:40:00,
2013-01-07 04:55:00,30.9,25.0,30.43,NNW,347,2.0,7.0,79,0.00,,,0.00,weatherlink.com 1.10,2013-01-07 09:55:00,
2013-01-07 05:10:00,30.6,25.0,30.44,NNW,335,3.0,4.0,79,0.00,,,0.00,weatherlink.com 1.10,2013-01-07 10:10:00,
2013-01-07 05:25:00,30.5,25.0,30.45,ENE,60,1.0,5.0,80,0.00,,,0.00,weatherlink.com 1.10,2013-01-07 10:25:00,
2013-01-07 05:40:00,30.8,25.0,30.46,North,4,6.0,8.0,79,0.00,,,0.00,weatherlink.com 1.10,2013-01-07 10:40:00,
2013-01-07 05:55:00,31.2,25.0,30.46,NNW,336,3.0,7.0,78,0.00,,,0.00,weatherlink.com 1.10,2013-01-07 10:55:00,
2013-01-07 06:10:00,31.3,25.0,30.47,NNW,343,4.0,8.0,78,0.00,,,0.00,weatherlink.com 1.10,2013-01-07 11:10:00,
2013-01-07 06:25:00,31.3,25.0,30.48,NNE,17,6.0,8.0,78,0.00,,,0.00,weatherlink.com 1.10,2013-01-07 11:25:00,
2013-01-07 06:40:00,31.1,25.0,30.48,NNE,18,5.0,8.0,78,0.00,,,0.00,weatherlink.com 1.10,2013-01-07 11:40:00,
2013-01-07 06:55:00,30.8,25.0,30.48,North,355,6.0,7.0,79,0.00,,,0.00,weatherlink.com 1.10,2013-01-07 11:55:00,
2013-01-07 07:10:00,30.8,25.0,30.49,NNE,12,6.0,7.0,78,0.00,,,0.00,weatherlink.com 1.10,2013-01-07 12:10:00,
2013-01-07 07:25:00,30.6,25.0,30.49,North,359,3.0,6.0,79,0.00,,,0.00,weatherlink.com 1.10,2013-01-07 12:25:00,
2013-01-07 07:40:00,30.2,24.0,30.49,North,351,6.0,8.0,79,0.00,,,0.00,weatherlink.com 1.10,2013-01-07 12:40:00,
2013-01-07 07:55:00,30.0,25.0,30.50,North,1,2.0,6.0,80,0.00,,,0.00,weatherlink.com 1.10,2013-01-07 12:55:00,
2013-01-07 08:11:00,30.4,25.0,30.50,NNE,27,4.0,6.0,79,0.00,,,0.00,weatherlink.com 1.10,2013-01-07 13:11:00,
2013-01-07 08:25:00,31.0,25.0,30.50,NNE,27,2.0,7.0,77,0.00,,,0.00,weatherlink.com 1.10,2013-01-07 13:25:00,
2013-01-07 08:41:00,32.1,25.0,30.49,NE,46,4.0,9.0,76,0.00,,,0.00,weatherlink.com 1.10,2013-01-07 13:41:00,
2013-01-07 08:55:00,32.7,25.0,30.50,NE,54,6.0,11.0,74,0.00,,,0.00,weatherlink.com 1.10,2013-01-07 13:55:00,
2013-01-07 09:11:00,33.7,26.0,30.50,ENE,70,1.0,9.0,73,0.00,,,0.00,weatherlink.com 1.10,2013-01-07 14:11:00,
2013-01-07 09:27:00,35.4,27.0,30.50,East,101,5.0,9.0,72,0.00,,,0.00,weatherlink.com 1.10,2013-01-07 14:27:00,
2013-01-07 09:41:00,36.9,27.0,30.51,NNW,348,0.0,7.0,67,0.00,,,0.00,weatherlink.com 1.10,2013-01-07 14:41:00,
2013-01-07 09:57:00,37.6,27.0,30.51,East,89,5.0,12.0,66,0.00,,,0.00,weatherlink.com 1.10,2013-01-07 14:57:00,
2013-01-07 10:12:00,38.3,27.0,30.51,ESE,112,6.0,8.0,65,0.00,,,0.00,weatherlink.com 1.10,2013-01-07 15:12:00,
2013-01-07 10:27:00,40.1,28.0,30.51,NE,43,3.0,9.0,63,0.00,,,0.00,weatherlink.com 1.10,2013-01-07 15:27:00,
2013-01-07 10:42:00,38.8,27.0,30.51,ENE,63,2.0,8.0,64,0.00,,,0.00,weatherlink.com 1.10,2013-01-07 15:42:00,
2013-01-07 10:57:00,38.9,28.0,30.50,ENE,68,2.0,7.0,64,0.00,,,0.00,weatherlink.com 1.10,2013-01-07 15:57:00,
2013-01-07 11:12:00,40.0,28.0,30.50,NE,49,2.0,7.0,62,0.00,,,0.00,weatherlink.com 1.10,2013-01-07 16:12:00,
2013-01-07 11:27:00,41.9,29.0,30.49,East,98,3.0,6.0,60,0.00,,,0.00,weatherlink.com 1.10,2013-01-07 16:27:00,
2013-01-07 11:42:00,42.6,29.0,30.49,ENE,60,1.0,6.0,59,0.00,,,0.00,weatherlink.com 1.10,2013-01-07 16:42:00,
2013-01-07 11:57:00,44.5,30.0,30.48,ESE,106,4.0,5.0,58,0.00,,,0.00,weatherlink.com 1.10,2013-01-07 16:57:00,
2013-01-07 12:12:00,43.9,28.0,30.47,SE,133,3.0,9.0,55,0.00,,,0.00,weatherlink.com 1.10,2013-01-07 17:12:00,
2013-01-07 12:27:00,46.3,29.0,30.46,ESE,109,5.0,8.0,51,0.00,,,0.00,weatherlink.com 1.10,2013-01-07 17:27:00,
2013-01-07 12:42:00,44.8,29.0,30.45,East,90,2.0,10.0,54,0.00,,,0.00,weatherlink.com 1.10,2013-01-07 17:42:00,
2013-01-07 12:57:00,45.7,30.0,30.44,ENE,57,3.0,10.0,55,0.00,,,0.00,weatherlink.com 1.10,2013-01-07 17:57:00,
2013-01-07 13:12:00,46.1,30.0,30.43,ESE,120,2.0,10.0,53,0.00,,,0.00,weatherlink.com 1.10,2013-01-07 18:12:00,
2013-01-07 13:27:00,46.3,29.0,30.43,NE,37,1.0,8.0,52,0.00,,,0.00,weatherlink.com 1.10,2013-01-07 18:27:00,
2013-01-07 13:42:00,47.1,30.0,30.42,ESE,112,5.0,9.0,51,0.00,,,0.00,weatherlink.com 1.10,2013-01-07 18:42:00,
2013-01-07 13:57:00,48.2,30.0,30.41,NE,45,1.0,6.0,49,0.00,,,0.00,weatherlink.com 1.10,2013-01-07 18:57:00,
2013-01-07 14:12:00,48.0,30.0,30.41,SE,139,3.0,4.0,50,0.00,,,0.00,weatherlink.com 1.10,2013-01-07 19:12:00,
2013-01-07 14:27:00,47.7,29.0,30.41,NE,53,0.0,8.0,49,0.00,,,0.00,weatherlink.com 1.10,2013-01-07 19:27:00,
2013-01-07 14:42:00,49.7,30.0,30.41,ESE,123,1.0,5.0,47,0.00,,,0.00,weatherlink.com 1.10,2013-01-07 19:42:00,
2013-01-07 14:57:00,49.4,30.0,30.41,East,90,0.0,7.0,47,0.00,,,0.00,weatherlink.com 1.10,2013-01-07 19:57:00,
2013-01-07 15:12:00,49.9,30.0,30.41,ESE,117,4.0,9.0,46,0.00,,,0.00,weatherlink.com 1.10,2013-01-07 20:12:00,
2013-01-07 15:27:00,49.8,30.0,30.41,East,95,3.0,7.0,46,0.00,,,0.00,weatherlink.com 1.10,2013-01-07 20:27:00,
2013-01-07 15:42:00,49.3,29.0,30.41,ENE,74,3.0,7.0,46,0.00,,,0.00,weatherlink.com 1.10,2013-01-07 20:42:00,
2013-01-07 15:57:00,49.3,30.0,30.41,ESE,121,4.0,6.0,48,0.00,,,0.00,weatherlink.com 1.10,2013-01-07 20:57:00,
2013-01-07 16:12:00,49.3,29.0,30.42,ENE,72,2.0,6.0,45,0.00,,,0.00,weatherlink.com 1.10,2013-01-07 21:12:00,
2013-01-07 16:27:00,49.1,29.0,30.41,East,80,1.0,4.0,46,0.00,,,0.00,weatherlink.com 1.10,2013-01-07 21:27:00,
2013-01-07 16:42:00,48.9,29.0,30.41,ESE,106,5.0,6.0,46,0.00,,,0.00,weatherlink.com 1.10,2013-01-07 21:42:00,
2013-01-07 16:57:00,48.3,28.0,30.41,East,91,3.0,4.0,46,0.00,,,0.00,weatherlink.com 1.10,2013-01-07 21:57:00,
2013-01-07 17:12:00,47.9,28.0,30.41,East,92,2.0,6.0,47,0.00,,,0.00,weatherlink.com 1.10,2013-01-07 22:12:00,
2013-01-07 17:27:00,46.9,28.0,30.41,East,89,4.0,5.0,48,0.00,,,0.00,weatherlink.com 1.10,2013-01-07 22:27:00,
2013-01-07 17:42:00,46.1,28.0,30.41,ESE,110,4.0,6.0,49,0.00,,,0.00,weatherlink.com 1.10,2013-01-07 22:42:00,
2013-01-07 17:57:00,45.7,28.0,30.41,East,92,6.0,6.0,50,0.00,,,0.00,weatherlink.com 1.10,2013-01-07 22:57:00,
2013-01-07 18:12:00,45.4,28.0,30.42,ESE,105,4.0,5.0,51,0.00,,,0.00,weatherlink.com 1.10,2013-01-07 23:12:00,
2013-01-07 18:27:00,45.3,28.0,30.42,ESE,114,4.0,4.0,52,0.00,,,0.00,weatherlink.com 1.10,2013-01-07 23:27:00,
2013-01-07 18:42:00,45.3,28.0,30.42,East,101,4.0,5.0,52,0.00,,,0.00,weatherlink.com 1.10,2013-01-07 23:42:00,
2013-01-07 18:57:00,44.8,28.0,30.42,East,86,3.0,5.0,53,0.00,,,0.00,weatherlink.com 1.10,2013-01-07 23:57:00,
2013-01-07 19:12:00,44.5,29.0,30.42,East,88,4.0,5.0,54,0.00,,,0.00,weatherlink.com 1.10,2013-01-08 00:12:00,
2013-01-07 19:27:00,44.2,29.0,30.42,East,93,4.0,6.0,55,0.00,,,0.00,weatherlink.com 1.10,2013-01-08 00:27:00,
2013-01-07 19:42:00,44.1,29.0,30.41,East,92,5.0,8.0,56,0.00,,,0.00,weatherlink.com 1.10,2013-01-08 00:42:00,
2013-01-07 19:57:00,44.0,29.0,30.40,East,94,6.0,8.0,57,0.00,,,0.00,weatherlink.com 1.10,2013-01-08 00:57:00,
2013-01-07 20:12:00,43.9,30.0,30.40,ESE,122,5.0,7.0,58,0.00,,,0.00,weatherlink.com 1.10,2013-01-08 01:12:00,
2013-01-07 20:27:00,43.8,30.0,30.40,East,96,2.0,4.0,58,0.00,,,0.00,weatherlink.com 1.10,2013-01-08 01:27:00,
2013-01-07 20:42:00,44.0,30.0,30.41,ESE,110,2.0,4.0,58,0.00,,,0.00,weatherlink.com 1.10,2013-01-08 01:42:00,
2013-01-07 20:57:00,43.5,30.0,30.40,ESE,114,3.0,4.0,59,0.00,,,0.00,weatherlink.com 1.10,2013-01-08 01:57:00,
2013-01-07 21:12:00,43.7,30.0,30.40,SE,127,3.0,4.0,59,0.00,,,0.00,weatherlink.com 1.10,2013-01-08 02:12:00,
2013-01-07 21:27:00,42.8,30.0,30.40,SSE,152,2.0,2.0,61,0.00,,,0.00,weatherlink.com 1.10,2013-01-08 02:27:00,
2013-01-07 21:42:00,42.2,29.0,30.39,South,174,1.0,2.0,61,0.00,,,0.00,weatherlink.com 1.10,2013-01-08 02:42:00,
2013-01-07 21:57:00,41.8,30.0,30.39,SSE,168,1.0,2.0,63,0.00,,,0.00,weatherlink.com 1.10,2013-01-08 02:57:00,
2013-01-07 22:12:00,41.7,30.0,30.40,SSE,154,1.0,3.0,63,0.00,,,0.00,weatherlink.com 1.10,2013-01-08 03:12:00,
2013-01-07 22:27:00,41.9,30.0,30.40,SE,136,2.0,2.0,63,0.00,,,0.00,weatherlink.com 1.10,2013-01-08 03:27:00,
2013-01-07 22:42:00,41.6,30.0,30.40,SW,217,1.0,2.0,63,0.00,,,0.00,weatherlink.com 1.10,2013-01-08 03:42:00,
2013-01-07 22:57:00,41.4,30.0,30.39,SSE,154,0.0,2.0,64,0.00,,,0.00,weatherlink.com 1.10,2013-01-08 03:57:00,
2013-01-07 23:12:00,41.6,30.0,30.39,SE,139,2.0,3.0,64,0.00,,,0.00,weatherlink.com 1.10,2013-01-08 04:12:00,
2013-01-07 23:27:00,41.3,29.0,30.39,East,91,0.0,3.0,63,0.00,,,0.00,weatherlink.com 1.10,2013-01-08 04:27:00,
2013-01-07 23:42:00,40.6,29.0,30.39,East,98,2.0,3.0,64,0.00,,,0.00,weatherlink.com 1.10,2013-01-08 04:42:00,
2013-01-07 23:57:00,39.7,29.0,30.39,East,96,3.0,3.0,66,0.00,,,0.00,weatherlink.com 1.10,2013-01-08 04:57:00,